createdAt,value
2018-08-20T00:01:27.105Z,4.17
2018-08-20T00:03:31.090Z,4.57
2018-08-20T00:05:33.961Z,4.23
2018-08-20T00:07:36.861Z,4.30
2018-08-20T00:09:39.733Z,4.30
2018-08-20T00:11:42.706Z,4.47
2018-08-20T00:13:45.789Z,5.00
2018-08-20T00:15:48.669Z,4.80
2018-08-20T00:17:51.553Z,4.40
2018-08-20T00:19:54.457Z,3.80
2018-08-20T00:21:58.097Z,4.33
2018-08-20T00:24:01.014Z,5.03
2018-08-20T00:26:03.993Z,4.90
2018-08-20T00:28:06.876Z,4.17
2018-08-20T00:30:09.754Z,3.80
2018-08-20T00:32:12.685Z,4.57
2018-08-20T00:34:15.620Z,4.50
2018-08-20T00:36:18.605Z,4.23
2018-08-20T00:38:21.696Z,4.93
2018-08-20T00:40:24.677Z,5.10
2018-08-20T00:42:27.657Z,4.17
2018-08-20T00:44:30.650Z,4.47
2018-08-20T00:46:33.520Z,5.43
2018-08-20T00:48:36.405Z,4.60
2018-08-20T00:50:39.389Z,4.77
2018-08-20T00:52:42.274Z,4.90
2018-08-20T00:54:46.672Z,4.40
2018-08-20T00:56:49.972Z,5.27
2018-08-20T00:58:52.957Z,4.73
2018-08-20T01:00:55.940Z,4.57
2018-08-20T01:02:58.924Z,4.00
2018-08-20T01:05:01.787Z,5.00
2018-08-20T01:07:04.652Z,4.60
2018-08-20T01:09:07.564Z,4.60
2018-08-20T01:11:11.950Z,5.03
2018-08-20T01:13:14.836Z,5.20
2018-08-20T01:15:17.732Z,5.00
2018-08-20T01:17:20.605Z,4.93
2018-08-20T01:19:23.485Z,4.40
2018-08-20T01:21:26.493Z,5.10
2018-08-20T01:23:29.378Z,4.33
2018-08-20T01:25:32.264Z,4.90
2018-08-20T01:27:36.049Z,5.27
2018-08-20T01:29:38.925Z,4.83
2018-08-20T01:31:41.794Z,4.70
2018-08-20T01:33:44.693Z,5.00
2018-08-20T01:35:47.573Z,5.33
2018-08-20T01:37:50.453Z,4.83
2018-08-20T01:39:53.544Z,5.73
2018-08-20T01:41:56.418Z,4.40
2018-08-20T01:43:59.289Z,5.30
2018-08-20T01:46:02.284Z,4.33
2018-08-20T01:48:05.197Z,4.27
2018-08-20T01:50:08.870Z,4.50
2018-08-20T01:52:13.272Z,4.33
2018-08-20T01:54:16.155Z,4.47
2018-08-20T01:56:19.033Z,4.60
2018-08-20T01:58:21.930Z,4.47
2018-08-20T02:00:25.629Z,4.57
2018-08-20T02:02:28.507Z,4.97
2018-08-20T02:04:31.483Z,4.60
2018-08-20T02:06:34.360Z,4.87
2018-08-20T02:08:37.245Z,4.30
2018-08-20T02:10:40.143Z,4.30
2018-08-20T02:12:43.795Z,5.17
2018-08-20T02:14:46.676Z,5.43
2018-08-20T02:16:49.573Z,5.97
2018-08-20T02:18:52.454Z,4.90
2018-08-20T02:20:55.349Z,4.30
2018-08-20T02:22:58.232Z,4.90
2018-08-20T02:25:02.613Z,4.37
2018-08-20T02:27:05.733Z,4.40
2018-08-20T02:29:10.112Z,5.10
2018-08-20T02:31:13.037Z,5.47
2018-08-20T02:33:17.548Z,4.87
2018-08-20T02:35:20.417Z,4.47
2018-08-20T02:37:23.285Z,4.40
2018-08-20T02:39:26.288Z,4.90
2018-08-20T02:41:29.169Z,4.90
2018-08-20T02:43:32.054Z,4.40
2018-08-20T02:45:35.245Z,5.23
2018-08-20T02:47:38.232Z,4.93
2018-08-20T02:49:41.217Z,4.57
2018-08-20T02:51:44.108Z,4.10
2018-08-20T02:53:47.757Z,4.30
2018-08-20T02:55:50.785Z,5.27
2018-08-20T02:57:54.437Z,5.07
2018-08-20T02:59:57.352Z,4.70
2018-08-20T03:02:00.301Z,5.37
2018-08-20T03:04:03.907Z,5.37
2018-08-20T03:06:07.619Z,5.33
2018-08-20T03:08:10.509Z,5.17
2018-08-20T03:10:13.396Z,5.13
2018-08-20T03:12:17.818Z,4.50
2018-08-20T03:14:20.801Z,3.43
2018-08-20T03:16:23.750Z,4.73
2018-08-20T03:18:26.561Z,4.70
2018-08-20T03:20:29.464Z,4.20
2018-08-20T03:22:33.140Z,4.23
2018-08-20T03:24:36.022Z,4.40
2018-08-20T03:26:38.916Z,4.70
2018-08-20T03:28:42.581Z,3.87
2018-08-20T03:30:45.578Z,5.03
2018-08-20T03:32:49.993Z,4.40
2018-08-20T03:34:52.876Z,4.73
2018-08-20T03:36:57.292Z,4.33
2018-08-20T03:39:00.278Z,5.23
2018-08-20T03:41:03.157Z,4.27
2018-08-20T03:43:07.558Z,4.90
2018-08-20T03:45:10.517Z,4.80
2018-08-20T03:47:13.432Z,4.90
2018-08-20T03:49:16.334Z,5.43
2018-08-20T03:51:19.976Z,4.90
2018-08-20T03:53:22.855Z,4.70
2018-08-20T03:55:25.889Z,5.30
2018-08-20T03:57:28.770Z,4.47
2018-08-20T03:59:33.161Z,5.80
2018-08-20T04:01:36.053Z,4.60
2018-08-20T04:03:38.921Z,5.70
2018-08-20T04:05:41.812Z,4.03
2018-08-20T04:07:44.691Z,4.10
2018-08-20T04:09:47.561Z,4.80
2018-08-20T04:11:50.560Z,4.63
2018-08-20T04:13:53.446Z,4.23
2018-08-20T04:15:56.314Z,4.23
2018-08-20T04:17:59.304Z,5.10
2018-08-20T04:20:02.181Z,5.03
2018-08-20T04:22:05.045Z,3.83
2018-08-20T04:24:07.946Z,4.70
2018-08-20T04:26:10.813Z,5.23
2018-08-20T04:28:13.717Z,4.30
2018-08-20T04:30:16.597Z,4.83
2018-08-20T04:32:19.577Z,4.23
2018-08-20T04:34:22.820Z,4.87
2018-08-20T04:36:25.773Z,4.30
2018-08-20T04:38:28.667Z,5.20
2018-08-20T04:40:31.561Z,4.20
2018-08-20T04:42:34.493Z,4.50
2018-08-20T04:44:37.381Z,3.93
2018-08-20T04:46:41.041Z,5.03
2018-08-20T04:48:43.918Z,5.00
2018-08-20T04:50:46.889Z,5.27
2018-08-20T04:52:49.809Z,5.03
2018-08-20T04:54:52.685Z,4.70
2018-08-20T04:56:55.561Z,4.70
2018-08-20T04:58:58.453Z,4.63
2018-08-20T05:01:01.331Z,4.77
2018-08-20T05:03:04.249Z,5.10
2018-08-20T05:05:07.893Z,4.73
2018-08-20T05:07:10.757Z,5.27
2018-08-20T05:09:13.649Z,4.83
2018-08-20T05:11:16.534Z,5.17
2018-08-20T05:13:19.414Z,4.90
2018-08-20T05:15:22.313Z,4.70
2018-08-20T05:17:25.307Z,4.70
2018-08-20T05:19:28.285Z,5.10
2018-08-20T05:21:46.944Z,4.70
2018-08-20T05:29:55.840Z,5.13
2018-08-20T05:39:54.871Z,5.00
2018-08-20T05:44:23.469Z,5.78
2018-08-20T05:46:27.122Z,5.03
2018-08-20T05:48:30.121Z,5.50
2018-08-20T05:50:33.108Z,5.70
2018-08-20T05:52:36.081Z,5.30
2018-08-20T05:54:38.894Z,5.73
2018-08-20T05:56:42.533Z,6.80
2018-08-20T05:58:45.414Z,6.60
2018-08-20T06:00:48.309Z,5.77
2018-08-20T06:02:51.211Z,5.90
2018-08-20T06:04:54.089Z,5.33
2018-08-20T06:06:56.993Z,6.40
2018-08-20T06:09:00.646Z,5.80
2018-08-20T06:11:03.533Z,5.93
2018-08-20T06:13:06.431Z,5.87
2018-08-20T06:15:09.339Z,5.03
2018-08-20T06:17:12.235Z,5.93
2018-08-20T06:19:15.992Z,5.03
2018-08-20T06:21:18.981Z,5.43
2018-08-20T06:23:23.497Z,5.93
2018-08-20T06:25:26.373Z,5.47
2018-08-20T06:27:29.260Z,5.23
2018-08-20T06:29:32.169Z,5.40
2018-08-20T06:31:35.842Z,5.10
2018-08-20T06:33:38.723Z,4.57
2018-08-20T06:35:41.758Z,5.20
2018-08-20T06:37:44.590Z,5.23
2018-08-20T06:39:47.465Z,5.30
2018-08-20T06:41:50.385Z,5.53
2018-08-20T06:43:53.330Z,4.60
2018-08-20T06:45:57.722Z,5.43
2018-08-20T06:48:00.629Z,4.67
2018-08-20T06:50:03.509Z,5.50
2018-08-20T06:52:06.384Z,5.70
2018-08-20T06:54:09.369Z,5.67
2018-08-20T06:56:12.249Z,5.50
2018-08-20T06:58:15.233Z,5.37
2018-08-20T07:00:18.221Z,5.07
2018-08-20T07:02:21.091Z,5.10
2018-08-20T07:04:24.025Z,6.37
2018-08-20T07:06:26.954Z,5.70
2018-08-20T07:08:29.794Z,5.50
2018-08-20T07:10:32.672Z,5.13
2018-08-20T07:12:35.598Z,4.20
2018-08-20T07:14:40.018Z,5.13
2018-08-20T07:16:42.923Z,4.80
2018-08-20T07:18:46.571Z,5.53
2018-08-20T07:20:49.449Z,5.13
2018-08-20T07:22:53.282Z,5.27
2018-08-20T07:24:56.146Z,5.23
2018-08-20T07:26:59.014Z,5.33
2018-08-20T07:29:01.914Z,4.70
2018-08-20T07:31:04.792Z,5.87
2018-08-20T07:33:07.690Z,5.27
2018-08-20T07:35:11.369Z,5.00
2018-08-20T07:37:14.269Z,6.03
2018-08-20T07:39:17.253Z,6.00
2018-08-20T07:41:20.162Z,5.50
2018-08-20T07:43:23.788Z,5.50
2018-08-20T07:45:26.709Z,4.87
2018-08-20T07:47:30.293Z,4.87
2018-08-20T07:49:33.545Z,6.00
2018-08-20T07:51:37.169Z,5.10
2018-08-20T07:53:40.067Z,5.40
2018-08-20T07:55:43.034Z,5.87
2018-08-20T07:57:45.942Z,5.40
2018-08-20T07:59:48.832Z,5.77
2018-08-20T08:01:52.486Z,6.73
2018-08-20T08:03:55.372Z,6.10
2018-08-20T08:05:58.291Z,4.93
2018-08-20T08:08:01.175Z,5.30
2018-08-20T08:10:04.146Z,5.37
2018-08-20T08:12:07.229Z,5.87
2018-08-20T08:14:10.139Z,5.67
2018-08-20T08:16:12.987Z,5.43
2018-08-20T08:18:15.976Z,5.00
2018-08-20T08:20:18.969Z,5.17
2018-08-20T08:22:23.345Z,4.70
2018-08-20T08:24:26.364Z,5.83
2018-08-20T08:26:29.267Z,5.43
2018-08-20T08:28:32.224Z,6.00
2018-08-20T08:30:35.202Z,5.80
2018-08-20T08:32:38.077Z,6.23
2018-08-20T08:34:40.967Z,5.30
2018-08-20T08:36:43.869Z,5.57
2018-08-20T08:38:47.513Z,5.70
2018-08-20T08:40:50.393Z,6.30
2018-08-20T08:42:53.409Z,6.20
2018-08-20T08:44:56.281Z,5.77
2018-08-20T08:46:59.165Z,6.07
2018-08-20T08:49:02.258Z,6.43
2018-08-20T08:51:05.245Z,5.20
2018-08-20T08:53:08.116Z,5.70
2018-08-20T08:55:11.122Z,6.57
2018-08-20T08:57:14.082Z,6.37
2018-08-20T08:59:16.957Z,6.47
2018-08-20T09:01:19.853Z,6.70
2018-08-20T09:03:22.725Z,5.80
2018-08-20T09:05:25.605Z,5.97
2018-08-20T09:07:28.595Z,5.57
2018-08-20T09:09:31.481Z,5.13
2018-08-20T09:11:35.140Z,5.00
2018-08-20T09:13:42.896Z,5.80
2018-08-20T09:15:46.540Z,5.87
2018-08-20T09:17:49.453Z,6.03
2018-08-20T09:19:52.361Z,5.50
2018-08-20T09:21:56.024Z,5.70
2018-08-20T09:23:58.904Z,5.50
2018-08-20T09:26:01.889Z,6.30
2018-08-20T09:28:04.810Z,6.37
2018-08-20T09:30:08.442Z,5.90
2018-08-20T09:32:11.481Z,5.80
2018-08-20T09:34:14.434Z,5.83
2018-08-20T09:36:17.323Z,6.87
2018-08-20T09:38:20.376Z,6.77
2018-08-20T09:40:23.172Z,5.33
2018-08-20T09:42:27.041Z,6.07
2018-08-20T09:44:29.937Z,5.50
2018-08-20T09:46:32.809Z,5.63
2018-08-20T09:48:35.690Z,5.80
2018-08-20T09:50:38.592Z,6.00
2018-08-20T09:52:41.488Z,5.70
2018-08-20T09:54:44.469Z,6.80
2018-08-20T09:56:47.557Z,6.10
2018-08-20T09:58:50.545Z,6.40
2018-08-20T10:00:53.461Z,5.37
2018-08-20T10:02:57.221Z,5.80
2018-08-20T10:05:00.206Z,5.93
2018-08-20T10:07:03.081Z,5.50
2018-08-20T10:09:06.069Z,5.20
2018-08-20T10:11:08.958Z,6.30
2018-08-20T10:13:11.929Z,6.03
2018-08-20T10:15:14.852Z,5.80
2018-08-20T10:17:18.602Z,6.50
2018-08-20T10:19:23.482Z,5.33
2018-08-20T10:21:26.528Z,5.00
2018-08-20T10:23:29.417Z,4.53
2018-08-20T10:25:33.117Z,5.20
2018-08-20T10:27:36.089Z,5.60
2018-08-20T10:29:38.961Z,5.00
2018-08-20T10:31:41.839Z,5.07
2018-08-20T10:33:44.729Z,5.90
2018-08-20T10:35:47.617Z,5.67
2018-08-20T10:37:50.724Z,5.40
2018-08-20T10:39:53.478Z,5.83
2018-08-20T10:41:56.357Z,4.93
2018-08-20T10:43:59.225Z,5.47
2018-08-20T10:46:02.148Z,5.63
2018-08-20T10:48:06.508Z,5.20
2018-08-20T10:50:09.456Z,4.40
2018-08-20T10:52:12.401Z,4.43
2018-08-20T10:54:15.395Z,6.07
2018-08-20T10:56:18.274Z,5.07
2018-08-20T10:58:21.169Z,5.10
2018-08-20T11:00:24.811Z,4.53
2018-08-20T11:02:27.685Z,4.80
2018-08-20T11:04:30.577Z,3.33
2018-08-20T11:06:33.585Z,4.07
2018-08-20T11:08:36.675Z,5.00
2018-08-20T11:10:39.702Z,4.10
2018-08-20T11:12:42.639Z,4.20
2018-08-20T11:14:45.627Z,3.73
2018-08-20T11:16:48.509Z,4.57
2018-08-20T11:18:52.328Z,6.07
2018-08-20T11:20:55.894Z,4.80
2018-08-20T11:22:58.766Z,4.13
2018-08-20T11:25:01.642Z,3.97
2018-08-20T11:27:04.549Z,4.27
2018-08-20T11:29:07.410Z,3.50
2018-08-20T11:31:10.345Z,3.97
2018-08-20T11:33:14.009Z,5.00
2018-08-20T11:35:16.886Z,4.10
2018-08-20T11:37:19.745Z,3.57
2018-08-20T11:39:22.671Z,4.10
2018-08-20T11:41:26.322Z,4.20
2018-08-20T11:43:29.221Z,3.90
2018-08-20T11:45:32.112Z,4.00
2018-08-20T11:47:35.100Z,4.00
2018-08-20T11:49:38.076Z,4.03
2018-08-20T11:51:40.950Z,3.50
2018-08-20T11:53:43.830Z,4.30
2018-08-20T11:55:46.720Z,3.90
2018-08-20T11:57:49.592Z,3.50
2018-08-20T11:59:52.586Z,3.87
2018-08-20T12:01:57.426Z,4.10
2018-08-20T12:04:00.237Z,3.53
2018-08-20T12:06:03.135Z,4.30
2018-08-20T12:08:06.013Z,4.20
2018-08-20T12:10:08.897Z,4.30
2018-08-20T12:12:11.814Z,3.97
2018-08-20T12:14:14.793Z,4.03
2018-08-20T12:16:17.776Z,3.70
2018-08-20T12:18:20.757Z,3.40
2018-08-20T12:20:23.638Z,3.50
2018-08-20T12:22:26.546Z,3.57
2018-08-20T12:24:29.392Z,3.30
2018-08-20T12:26:32.260Z,3.60
2018-08-20T12:28:35.261Z,4.00
2018-08-20T12:30:38.137Z,3.20
2018-08-20T12:32:41.023Z,3.40
2018-08-20T12:34:44.017Z,3.50
2018-08-20T12:36:46.882Z,3.87
2018-08-20T12:38:51.273Z,3.43
2018-08-20T12:40:54.177Z,3.30
2018-08-20T12:42:57.061Z,2.63
2018-08-20T12:44:59.938Z,3.20
2018-08-20T12:47:02.836Z,3.60
2018-08-20T12:49:05.713Z,3.30
2018-08-20T12:51:08.949Z,3.23
2018-08-20T12:53:11.857Z,3.20
2018-08-20T12:55:14.738Z,3.10
2018-08-20T12:57:17.617Z,3.03
2018-08-20T12:59:20.513Z,3.20
2018-08-20T13:01:23.506Z,2.57
2018-08-20T13:03:26.382Z,3.67
2018-08-20T13:05:29.373Z,3.27
2018-08-20T13:07:33.758Z,2.73
2018-08-20T13:09:36.625Z,2.70
2018-08-20T13:11:39.598Z,2.83
2018-08-20T13:13:42.473Z,3.23
2018-08-20T13:15:45.403Z,3.80
2018-08-20T13:17:48.274Z,3.43
2018-08-20T13:19:51.173Z,3.00
2018-08-20T13:21:54.058Z,2.47
2018-08-20T13:23:56.957Z,2.60
2018-08-20T13:26:00.597Z,2.57
2018-08-20T13:28:03.468Z,3.00
2018-08-20T13:30:06.614Z,2.90
2018-08-20T13:32:09.493Z,2.77
2018-08-20T13:34:14.010Z,2.90
2018-08-20T13:36:16.881Z,2.93
2018-08-20T13:38:19.748Z,2.63
2018-08-20T13:40:22.861Z,2.57
2018-08-20T13:42:25.753Z,2.80
2018-08-20T13:44:29.381Z,2.80
2018-08-20T13:46:32.329Z,3.20
2018-08-20T13:48:35.977Z,3.30
2018-08-20T13:50:38.857Z,2.57
2018-08-20T13:52:41.774Z,3.30
2018-08-20T13:54:44.687Z,2.93
2018-08-20T13:56:47.545Z,3.47
2018-08-20T13:58:50.533Z,3.10
2018-08-20T14:00:54.350Z,3.20
2018-08-20T14:02:57.187Z,2.70
2018-08-20T14:05:00.177Z,3.13
2018-08-20T14:07:03.101Z,3.07
2018-08-20T14:09:06.038Z,3.50
2018-08-20T14:11:08.905Z,3.10
2018-08-20T14:13:11.805Z,3.50
2018-08-20T14:15:14.784Z,3.67
2018-08-20T14:17:17.766Z,3.70
2018-08-20T14:19:20.633Z,2.77
2018-08-20T14:21:23.530Z,2.83
2018-08-20T14:23:26.426Z,2.70
2018-08-20T14:25:29.589Z,2.70
2018-08-20T14:27:32.586Z,2.30
2018-08-20T14:29:35.453Z,2.50
2018-08-20T14:31:39.094Z,2.93
2018-08-20T14:33:42.832Z,2.80
2018-08-20T14:35:45.705Z,2.60
2018-08-20T14:37:48.662Z,2.60
2018-08-20T14:39:52.296Z,2.40
2018-08-20T14:41:55.185Z,2.63
2018-08-20T14:43:58.189Z,2.70
2018-08-20T14:46:02.581Z,2.43
2018-08-20T14:48:05.466Z,3.27
2018-08-20T14:50:08.460Z,2.17
2018-08-20T14:52:12.136Z,2.83
2018-08-20T14:54:15.018Z,3.63
2018-08-20T14:56:17.922Z,2.80
2018-08-20T14:58:20.804Z,3.50
2018-08-20T15:00:23.674Z,2.20
2018-08-20T15:02:26.594Z,2.90
2018-08-20T15:04:29.438Z,3.10
2018-08-20T15:06:32.346Z,2.80
2018-08-20T15:08:36.043Z,2.70
2018-08-20T15:10:38.907Z,2.93
2018-08-20T15:12:41.999Z,2.77
2018-08-20T15:14:45.969Z,3.37
2018-08-20T15:16:48.885Z,2.77
2018-08-20T15:18:51.907Z,4.13
2018-08-20T15:20:55.541Z,2.70
2018-08-20T15:22:58.427Z,3.10
2018-08-20T15:25:01.334Z,2.60
2018-08-20T15:27:04.205Z,3.63
2018-08-20T15:29:07.084Z,2.90
2018-08-20T15:31:09.972Z,2.77
2018-08-20T15:33:12.862Z,3.27
2018-08-20T15:35:15.730Z,2.83
2018-08-20T15:37:18.680Z,2.93
2018-08-20T15:39:21.606Z,2.70
2018-08-20T15:41:24.518Z,2.97
2018-08-20T15:43:27.452Z,3.40
2018-08-20T15:45:30.330Z,3.37
2018-08-20T15:47:33.239Z,2.60
2018-08-20T15:49:36.201Z,3.07
2018-08-20T15:51:39.289Z,2.80
2018-08-20T15:53:42.217Z,3.50
2018-08-20T15:55:45.155Z,3.43
2018-08-20T15:57:48.014Z,3.80
2018-08-20T15:59:50.913Z,3.20
2018-08-20T16:01:53.789Z,3.00
2018-08-20T16:03:56.669Z,3.10
2018-08-20T16:05:59.768Z,2.90
2018-08-20T16:08:02.685Z,3.30
2018-08-20T16:10:05.575Z,3.77
2018-08-20T16:12:08.476Z,3.50
2018-08-20T16:14:11.357Z,2.77
2018-08-20T16:16:14.261Z,2.43
2018-08-20T16:18:17.154Z,2.57
2018-08-20T16:20:21.538Z,2.50
2018-08-20T16:22:24.441Z,2.00
2018-08-20T16:24:27.319Z,1.93
2018-08-20T16:26:30.195Z,2.13
2018-08-20T16:28:33.097Z,1.93
2018-08-20T16:30:36.749Z,1.70
2018-08-20T16:32:39.637Z,2.07
2018-08-20T16:34:42.525Z,2.33
2018-08-20T16:36:45.406Z,2.30
2018-08-20T16:38:48.309Z,1.60
2018-08-20T16:40:51.194Z,1.70
2018-08-20T16:42:54.064Z,1.83
2018-08-20T16:44:56.991Z,2.20
2018-08-20T16:47:00.182Z,1.97
2018-08-20T16:49:03.121Z,2.00
2018-08-20T16:51:06.168Z,2.40
2018-08-20T16:53:09.024Z,2.03
2018-08-20T16:55:12.774Z,1.77
2018-08-20T16:57:15.769Z,2.07
2018-08-20T16:59:18.657Z,2.00
2018-08-20T17:01:21.653Z,2.10
2018-08-20T17:03:25.339Z,1.93
2018-08-20T17:05:28.250Z,1.63
2018-08-20T17:07:31.642Z,2.37
2018-08-20T17:09:34.543Z,2.43
2018-08-20T17:11:37.432Z,2.00
2018-08-20T17:13:40.354Z,2.00
2018-08-20T17:15:43.376Z,2.00
2018-08-20T17:17:47.008Z,2.00
2018-08-20T17:19:49.914Z,2.20
2018-08-20T17:21:52.997Z,1.90
2018-08-20T17:23:55.981Z,1.70
2018-08-20T17:25:58.874Z,1.87
2018-08-20T17:28:01.783Z,2.13
2018-08-20T17:30:06.262Z,1.80
2018-08-20T17:32:09.144Z,2.00
2018-08-20T17:34:12.129Z,1.97
2018-08-20T17:36:15.012Z,2.07
2018-08-20T17:38:19.426Z,2.30
2018-08-20T17:40:22.417Z,1.83
2018-08-20T17:42:26.139Z,2.03
2018-08-20T17:44:28.942Z,2.57
2018-08-20T17:46:31.837Z,2.27
2018-08-20T17:48:34.715Z,2.53
2018-08-20T17:50:37.633Z,2.57
2018-08-20T17:52:40.629Z,2.60
2018-08-20T17:54:46.809Z,2.40
2018-08-20T17:56:50.509Z,3.50
2018-08-20T17:58:54.149Z,2.87
2018-08-20T18:00:57.052Z,2.50
2018-08-20T18:02:59.912Z,2.50
2018-08-20T18:05:02.854Z,2.30
2018-08-20T18:07:05.797Z,2.57
2018-08-20T18:09:08.679Z,2.60
2018-08-20T18:11:11.761Z,2.83
2018-08-20T18:13:14.629Z,2.50
2018-08-20T18:15:17.506Z,2.90
2018-08-20T18:17:20.497Z,2.60
2018-08-20T18:19:23.366Z,2.70
2018-08-20T18:21:26.243Z,2.70
2018-08-20T18:23:29.195Z,2.73
2018-08-20T18:25:32.029Z,2.70
2018-08-20T18:27:34.922Z,2.70
2018-08-20T18:29:37.913Z,2.63
2018-08-20T18:31:41.593Z,2.57
2018-08-20T18:33:44.572Z,2.33
2018-08-20T18:35:47.489Z,2.50
2018-08-20T18:37:50.366Z,2.90
2018-08-20T18:39:54.006Z,3.03
2018-08-20T18:41:56.906Z,2.57
2018-08-20T18:43:59.813Z,2.83
2018-08-20T18:46:03.507Z,2.87
2018-08-20T18:48:06.399Z,2.50
2018-08-20T18:50:10.034Z,2.73
2018-08-20T18:52:12.957Z,2.50
2018-08-20T18:54:15.974Z,2.87
2018-08-20T18:56:18.797Z,3.23
2018-08-20T18:58:21.674Z,2.70
2018-08-20T19:00:24.609Z,2.80
2018-08-20T19:02:28.246Z,3.13
2018-08-20T19:04:31.123Z,3.03
2018-08-20T19:06:34.029Z,2.53
2018-08-20T19:08:36.914Z,3.00
2018-08-20T19:10:39.805Z,2.63
2018-08-20T19:12:44.323Z,3.00
2018-08-20T19:14:47.204Z,2.70
2018-08-20T19:16:51.588Z,2.83
2018-08-20T19:18:54.502Z,3.03
2018-08-20T19:20:57.386Z,2.30
2018-08-20T19:23:00.248Z,2.87
2018-08-20T19:25:03.141Z,2.30
2018-08-20T19:27:06.012Z,2.70
2018-08-20T19:29:08.901Z,2.67
2018-08-20T19:31:11.973Z,2.53
2018-08-20T19:33:14.861Z,2.43
2018-08-20T19:35:17.732Z,2.40
2018-08-20T19:37:20.629Z,2.60
2018-08-20T19:39:23.502Z,2.13
2018-08-20T19:41:26.437Z,2.30
2018-08-20T19:43:30.154Z,2.30
2018-08-20T19:45:33.034Z,2.60
2018-08-20T19:47:35.913Z,2.10
2018-08-20T19:49:39.761Z,2.47
2018-08-20T19:51:42.631Z,2.40
2018-08-20T19:53:45.506Z,1.77
2018-08-20T19:55:48.410Z,2.57
2018-08-20T19:57:51.409Z,2.40
2018-08-20T19:59:54.370Z,2.83
2018-08-20T20:01:57.453Z,2.30
2018-08-20T20:04:00.332Z,3.07
2018-08-20T20:06:03.313Z,2.63
2018-08-20T20:08:06.302Z,2.80
2018-08-20T20:10:09.173Z,4.27
2018-08-20T20:12:12.103Z,3.07
2018-08-20T20:14:14.945Z,2.57
2018-08-20T20:16:17.814Z,2.77
2018-08-20T20:18:20.690Z,3.30
2018-08-20T20:20:23.593Z,3.03
2018-08-20T20:22:26.461Z,3.00
2018-08-20T20:24:29.341Z,3.30
2018-08-20T20:26:32.242Z,2.63
2018-08-20T20:28:35.209Z,2.90
2018-08-20T20:30:38.084Z,3.13
2018-08-20T20:32:41.029Z,3.10
2018-08-20T20:34:43.958Z,2.90
2018-08-20T20:36:46.838Z,3.60
2018-08-20T20:38:49.858Z,2.97
2018-08-20T20:40:52.710Z,3.90
2018-08-20T20:42:56.366Z,3.63
2018-08-20T20:44:59.276Z,3.47
2018-08-20T20:47:02.158Z,3.50
2018-08-20T20:49:05.038Z,3.53
2018-08-20T20:51:08.116Z,3.77
2018-08-20T20:53:11.000Z,3.90
2018-08-20T20:55:13.907Z,3.40
2018-08-20T20:57:17.577Z,4.77
2018-08-20T20:59:20.461Z,4.10
2018-08-20T21:01:23.337Z,4.10
2018-08-20T21:03:26.453Z,3.93
2018-08-20T21:05:30.105Z,4.93
2018-08-20T21:07:32.985Z,4.50
2018-08-20T21:09:35.888Z,5.30
2018-08-20T21:11:38.769Z,4.20
2018-08-20T21:13:41.666Z,4.43
2018-08-20T21:15:44.550Z,4.87
2018-08-20T21:17:47.519Z,4.67
2018-08-20T21:19:50.490Z,5.20
2018-08-20T21:21:54.197Z,4.30
2018-08-20T21:23:57.080Z,4.40
2018-08-20T21:25:59.955Z,4.10
2018-08-20T21:28:02.852Z,4.20
2018-08-20T21:30:05.725Z,4.70
2018-08-20T21:32:08.705Z,5.00
2018-08-20T21:34:11.689Z,4.63
2018-08-20T21:36:14.556Z,3.73
2018-08-20T21:38:17.511Z,5.00
2018-08-20T21:40:21.126Z,3.80
2018-08-20T21:42:23.997Z,3.80
2018-08-20T21:44:26.930Z,4.40
2018-08-20T21:46:29.857Z,4.80
2018-08-20T21:48:32.733Z,4.90
2018-08-20T21:50:35.696Z,4.80
2018-08-20T21:52:39.342Z,4.90
2018-08-20T21:54:42.216Z,5.00
2018-08-20T21:56:45.100Z,4.00
2018-08-20T21:58:48.106Z,4.90
2018-08-20T22:00:51.042Z,4.60
2018-08-20T22:02:53.904Z,4.93
2018-08-20T22:04:56.814Z,4.70
2018-08-20T22:06:59.690Z,4.73
2018-08-20T22:09:02.570Z,4.50
2018-08-20T22:11:05.691Z,4.20
2018-08-20T22:13:08.677Z,4.30
2018-08-20T22:15:11.557Z,4.10
2018-08-20T22:17:14.474Z,4.60
2018-08-20T22:19:18.121Z,4.20
2018-08-20T22:21:21.001Z,4.03
2018-08-20T22:23:38.581Z,4.80
2018-08-20T22:25:28.298Z,4.43
2018-08-20T22:27:31.171Z,4.80
2018-08-20T22:29:34.065Z,3.40
2018-08-20T22:31:36.945Z,5.20
2018-08-20T22:33:39.819Z,4.50
2018-08-20T22:35:42.712Z,4.47
2018-08-20T22:37:45.592Z,4.30
2018-08-20T22:39:48.465Z,3.93
2018-08-20T22:41:51.578Z,4.87
2018-08-20T22:43:54.432Z,3.70
2018-08-20T22:45:57.325Z,3.90
2018-08-20T22:48:00.310Z,7.20
2018-08-20T22:50:03.192Z,4.43
2018-08-20T22:52:06.149Z,4.13
2018-08-20T22:54:09.037Z,4.37
2018-08-20T22:56:11.947Z,4.60
2018-08-20T22:58:14.821Z,4.50
2018-08-20T23:00:17.816Z,4.47
2018-08-20T23:02:21.472Z,4.70
2018-08-20T23:04:24.481Z,3.90
2018-08-20T23:06:27.380Z,4.10
2018-08-20T23:08:30.244Z,4.40
2018-08-20T23:10:33.142Z,4.60
2018-08-20T23:12:36.045Z,4.57
2018-08-20T23:14:38.983Z,4.00
2018-08-20T23:16:41.861Z,4.60
2018-08-20T23:18:44.785Z,4.03
2018-08-20T23:20:48.429Z,4.13
2018-08-20T23:22:51.333Z,4.70
2018-08-20T23:24:54.225Z,4.37
2018-08-20T23:26:57.872Z,4.43
2018-08-20T23:29:00.767Z,4.30
2018-08-20T23:31:03.677Z,3.70
2018-08-20T23:33:06.691Z,4.90
2018-08-20T23:35:10.305Z,4.60
2018-08-20T23:37:13.206Z,4.20
2018-08-20T23:39:16.088Z,4.73
2018-08-20T23:41:18.998Z,4.30
2018-08-20T23:43:22.020Z,4.37
2018-08-20T23:45:25.645Z,4.10
2018-08-20T23:47:28.513Z,4.30
2018-08-20T23:49:31.536Z,4.40
2018-08-20T23:51:34.428Z,4.20
2018-08-20T23:53:37.422Z,3.90
2018-08-20T23:55:41.206Z,4.30
2018-08-20T23:57:44.085Z,4.13
2018-08-20T23:59:46.984Z,4.23
